This is the latest recevied weather packets stored in our database for station/object OK0EK-12. If no packets are shown the sender has not sent any weather packets the latest 10 day(s).
| Time | Temp. | Humidity | Pressure | Rain* | Wind** | Luminosity | Snow |
|---|---|---|---|---|---|---|---|
| 1777525482 | 0.56° C | 61% | 1111 hPa | - | - | - | - |
| 1777524881 | 0° C | 64% | 1110.9 hPa | - | - | - | - |
| 1777524280 | -0.56° C | 64% | 1110.8 hPa | - | - | - | - |
| 1777523680 | -0.56° C | 67% | 1110.7 hPa | - | - | - | - |
| 1777523079 | -2.22° C | 73% | 1110.7 hPa | - | - | - | - |
| 1777522478 | -3.89° C | 78% | 1110.8 hPa | - | - | - | - |
| 1777521877 | -4.44° C | 78% | 1110.7 hPa | - | - | - | - |
| 1777521277 | -4.44° C | 78% | 1110.7 hPa | - | - | - | - |
| 1777520676 | -4.44° C | 78% | 1110.7 hPa | - | - | - | - |
| 1777520075 | -4.44° C | 78% | 1110.8 hPa | - | - | - | - |
| 1777519475 | -4.44° C | 78% | 1110.7 hPa | - | - | - | - |
| 1777518874 | -4.44° C | 77% | 1110.7 hPa | - | - | - | - |
| 1777518273 | -4.44° C | 76% | 1110.6 hPa | - | - | - | - |
| 1777517672 | -3.89° C | 75% | 1110.4 hPa | - | - | - | - |
| 1777517072 | -3.33° C | 73% | 1110.4 hPa | - | - | - | - |
| 1777516471 | -3.33° C | 74% | 1110.5 hPa | - | - | - | - |
| 1777515870 | -3.33° C | 75% | 1110.5 hPa | - | - | - | - |
| 1777515269 | -3.33° C | 75% | 1110.5 hPa | - | - | - | - |
| 1777514668 | -3.33° C | 75% | 1110.4 hPa | - | - | - | - |
| 1777514068 | -3.89° C | 76% | 1110.4 hPa | - | - | - | - |
| 1777513467 | -3.89° C | 77% | 1110.2 hPa | - | - | - | - |
| 1777512866 | -3.89° C | 76% | 1110.3 hPa | - | - | - | - |
| 1777512267 | -3.89° C | 75% | 1110.2 hPa | - | - | - | - |
| 1777511668 | -3.33° C | 74% | 1110.1 hPa | - | - | - | - |
| 1777511077 | -3.33° C | 76% | 1110.2 hPa | - | - | - | - |
* Rain since midnight (hover to see other rain measurements)
** Current wind speed in m/s (hover to see current wind gust speed)